Time;durP1;ratioP1;P1;durP2;ratioP2;P2;SDS_P1;SDS_P2;PMS_P1;PMS_P2;Temp;Humidity;BMP_temperature;BMP_pressure;BME280_temperature;BME280_humidity;BME280_pressure;Samples;Min_cycle;Max_cycle;Signal;HPM_P1;HPM_P2
2020/12/19 00:01:51;;;;;;;17.00;10.15;;;;;;;5.89;100.00;100726.69;4945875;28;20073;-50
2020/12/19 00:04:38;;;;;;;21.20;11.98;;;;;;;5.86;100.00;100720.66;4943024;28;20126;-50
2020/12/19 00:07:05;;;;;;;19.35;10.57;;;;;;;5.82;100.00;100715.78;4947821;28;20088;-49
2020/12/19 00:09:33;;;;;;;20.27;10.25;;;;;;;5.91;100.00;100711.47;4950344;28;20046;-50
2020/12/19 00:12:00;;;;;;;17.17;9.93;;;;;;;5.90;100.00;100718.59;4947680;28;20454;-52
2020/12/19 00:14:27;;;;;;;20.52;10.05;;;;;;;5.78;100.00;100707.25;4946577;28;20047;-50
2020/12/19 00:16:54;;;;;;;18.35;10.40;;;;;;;5.75;100.00;100704.88;4944085;28;20074;-53
2020/12/19 00:19:22;;;;;;;19.17;10.45;;;;;;;5.68;100.00;100703.72;4949572;28;20476;-50
2020/12/19 00:21:49;;;;;;;19.55;9.95;;;;;;;5.70;100.00;100709.75;4942832;28;20040;-51
2020/12/19 00:24:16;;;;;;;20.83;10.93;;;;;;;5.55;100.00;100703.13;4952098;28;20032;-50
2020/12/19 00:26:44;;;;;;;20.25;10.00;;;;;;;5.53;100.00;100711.22;4948506;28;20043;-51
2020/12/19 00:29:12;;;;;;;23.35;10.90;;;;;;;5.63;100.00;100698.00;4946774;28;20047;-51
2020/12/19 00:31:40;;;;;;;19.55;11.05;;;;;;;5.73;100.00;100695.38;4945004;28;20054;-51
2020/12/19 00:34:07;;;;;;;19.17;10.65;;;;;;;5.66;100.00;100687.13;4949152;28;20047;-50
2020/12/19 00:36:35;;;;;;;22.25;10.18;;;;;;;5.70;100.00;100680.59;4948328;28;20061;-49
2020/12/19 00:39:02;;;;;;;21.25;10.52;;;;;;;5.67;100.00;100676.41;4945893;28;20051;-51
2020/12/19 00:41:29;;;;;;;19.58;10.90;;;;;;;5.62;100.00;100680.44;4948188;28;20043;-50
2020/12/19 00:43:58;;;;;;;23.35;11.68;;;;;;;5.58;100.00;100671.06;4946678;28;20318;-53
2020/12/19 00:46:25;;;;;;;20.90;11.15;;;;;;;5.56;100.00;100671.22;4950335;28;20051;-50
2020/12/19 00:48:52;;;;;;;20.02;10.45;;;;;;;5.52;100.00;100665.31;4948739;28;20057;-50
2020/12/19 00:51:20;;;;;;;19.80;9.20;;;;;;;5.59;100.00;100672.75;4946820;28;20066;-49
2020/12/19 00:53:48;;;;;;;18.20;9.77;;;;;;;5.57;100.00;100669.38;4948465;28;20051;-50
2020/12/19 00:56:20;;;;;;;22.75;10.77;;;;;;;5.57;100.00;100666.72;4950688;28;20050;-51
2020/12/19 00:58:48;;;;;;;23.90;11.43;;;;;;;5.51;100.00;100655.72;4949133;28;20054;-50
2020/12/19 01:01:17;;;;;;;23.30;10.75;;;;;;;5.55;100.00;100650.16;4946021;28;20051;-50
2020/12/19 01:03:45;;;;;;;20.10;9.85;;;;;;;5.54;100.00;100648.47;4948070;28;20039;-50
2020/12/19 01:06:16;;;;;;;22.23;11.02;;;;;;;5.50;100.00;100640.78;4950591;28;20059;-52
2020/12/19 01:08:44;;;;;;;22.50;11.10;;;;;;;5.39;100.00;100646.19;4948335;28;20126;-50
2020/12/19 01:11:28;;;;;;;26.00;13.02;;;;;;;5.37;100.00;100647.28;4942827;28;20066;-50
2020/12/19 01:13:57;;;;;;;20.15;10.93;;;;;;;5.40;100.00;100647.03;4948615;28;20047;-50
2020/12/19 01:16:27;;;;;;;21.02;11.00;;;;;;;5.35;100.00;100642.13;4950201;28;20142;-50
2020/12/19 01:18:55;;;;;;;21.70;10.85;;;;;;;5.39;100.00;100632.94;4947761;28;20432;-54
2020/12/19 01:21:25;;;;;;;23.10;10.88;;;;;;;5.38;100.00;100639.22;4951263;28;20450;-52
2020/12/19 01:23:52;;;;;;;29.40;12.65;;;;;;;5.40;100.00;100637.28;4945798;28;20043;-51
2020/12/19 01:26:20;;;;;;;21.73;11.60;;;;;;;5.42;100.00;100632.69;4950582;28;20051;-50
2020/12/19 01:28:48;;;;;;;25.35;11.48;;;;;;;5.40;100.00;100633.78;4946863;28;20074;-49
2020/12/19 01:31:16;;;;;;;20.20;10.02;;;;;;;5.34;100.00;100629.84;4947199;28;20053;-53
2020/12/19 01:33:44;;;;;;;16.85;10.48;;;;;;;5.38;100.00;100628.63;4945008;28;20051;-50
2020/12/19 01:36:13;;;;;;;23.20;12.63;;;;;;;5.40;100.00;100621.41;4948360;28;20419;-50
2020/12/19 01:38:40;;;;;;;22.08;11.55;;;;;;;5.42;100.00;100614.13;4948688;28;20043;-50
2020/12/19 01:41:08;;;;;;;20.10;10.20;;;;;;;5.41;100.00;100616.91;4946926;28;20245;-50
2020/12/19 01:43:46;;;;;;;21.42;10.98;;;;;;;5.42;100.00;100615.97;4948017;28;20332;-50
2020/12/19 01:46:19;;;;;;;20.65;10.73;;;;;;;5.43;100.00;100610.53;4943315;28;20044;-50
2020/12/19 01:48:47;;;;;;;19.48;10.82;;;;;;;5.52;100.00;100603.56;4950530;28;20050;-50
2020/12/19 01:51:15;;;;;;;22.35;11.75;;;;;;;5.52;100.00;100616.81;4946225;28;20040;-53
2020/12/19 01:53:43;;;;;;;24.25;13.50;;;;;;;5.51;100.00;100610.69;4945656;28;20047;-50
2020/12/19 01:56:10;;;;;;;19.85;11.05;;;;;;;5.50;100.00;100600.19;4947876;28;20411;-51
2020/12/19 01:58:39;;;;;;;22.88;11.55;;;;;;;5.48;100.00;100596.88;4946367;28;20040;-50
2020/12/19 02:01:09;;;;;;;24.50;11.05;;;;;;;5.56;100.00;100599.69;4948538;28;20078;-52
2020/12/19 02:03:53;;;;;;;19.60;10.88;;;;;;;5.48;100.00;100600.34;4928681;28;20056;-49
2020/12/19 02:06:20;;;;;;;21.15;11.48;;;;;;;5.50;100.00;100597.56;4950700;28;20055;-50
2020/12/19 02:08:49;;;;;;;21.20;10.77;;;;;;;5.32;100.00;100581.50;4946031;28;20051;-51
2020/12/19 02:11:17;;;;;;;20.13;10.35;;;;;;;5.40;100.00;100581.66;4946936;28;20098;-52
2020/12/19 02:13:45;;;;;;;19.65;9.95;;;;;;;5.58;100.00;100586.28;4948846;28;20062;-52
2020/12/19 02:16:16;;;;;;;20.55;10.63;;;;;;;5.55;100.00;100589.22;4943363;28;20058;-54
2020/12/19 02:18:43;;;;;;;19.10;9.60;;;;;;;5.63;100.00;100584.09;4947829;28;20039;-49
2020/12/19 02:21:12;;;;;;;19.98;10.98;;;;;;;5.49;100.00;100582.66;4945868;28;20126;-50
2020/12/19 02:23:40;;;;;;;20.30;11.10;;;;;;;5.45;100.00;100586.53;4946751;28;20043;-51
2020/12/19 02:26:07;;;;;;;18.80;9.48;;;;;;;5.49;100.00;100583.47;4944369;28;20052;-51
2020/12/19 02:28:34;;;;;;;23.33;11.65;;;;;;;5.43;100.00;100577.88;4947677;28;20051;-51
2020/12/19 02:31:01;;;;;;;20.48;11.18;;;;;;;5.47;100.00;100572.19;4946310;28;20044;-53
2020/12/19 02:33:29;;;;;;;20.20;11.68;;;;;;;5.40;100.00;100571.06;4944401;28;20043;-52
2020/12/19 02:36:05;;;;;;;20.77;11.75;;;;;;;5.47;100.00;100566.03;4945287;28;20050;-53
2020/12/19 02:38:32;;;;;;;17.95;10.40;;;;;;;5.51;100.00;100568.31;4944514;28;20153;-50
2020/12/19 02:41:00;;;;;;;18.25;11.55;;;;;;;5.56;100.00;100556.44;4942433;28;20059;-51
2020/12/19 02:43:27;;;;;;;18.30;10.70;;;;;;;5.66;100.00;100562.63;4943699;28;20074;-49
2020/12/19 02:45:55;;;;;;;19.95;10.23;;;;;;;5.63;100.00;100557.59;4945535;28;20063;-50
2020/12/19 02:48:25;;;;;;;21.40;10.98;;;;;;;5.71;100.00;100547.13;4949407;28;20061;-49
2020/12/19 02:50:53;;;;;;;18.83;8.82;;;;;;;5.62;100.00;100551.44;4944436;28;20485;-50
2020/12/19 02:53:20;;;;;;;17.63;9.55;;;;;;;5.69;100.00;100546.44;4948441;28;20320;-50
2020/12/19 02:55:47;;;;;;;17.55;9.02;;;;;;;5.65;100.00;100545.03;4938917;28;20080;-52
2020/12/19 02:58:16;;;;;;;18.60;9.45;;;;;;;5.74;100.00;100540.72;4946350;28;20063;-51
2020/12/19 03:00:43;;;;;;;20.73;10.63;;;;;;;5.69;100.00;100531.38;4945552;28;20043;-53
2020/12/19 03:03:10;;;;;;;20.33;9.48;;;;;;;5.70;100.00;100534.88;4945247;28;20058;-49
2020/12/19 03:05:37;;;;;;;19.30;10.00;;;;;;;5.71;100.00;100525.09;4946351;28;20090;-49
2020/12/19 03:08:04;;;;;;;17.92;9.85;;;;;;;5.71;100.00;100525.94;4947415;28;20067;-52
2020/12/19 03:10:31;;;;;;;16.20;9.13;;;;;;;5.64;100.00;100522.16;4942958;28;20085;-51
2020/12/19 03:12:59;;;;;;;17.67;9.43;;;;;;;5.63;100.00;100520.50;4948219;28;20050;-49
2020/12/19 03:15:28;;;;;;;15.35;9.13;;;;;;;5.62;100.00;100524.13;4947010;28;20051;-49
2020/12/19 03:17:55;;;;;;;18.98;9.65;;;;;;;5.56;100.00;100524.66;4941284;28;20115;-49
2020/12/19 03:20:22;;;;;;;13.70;8.13;;;;;;;5.63;100.00;100513.38;4946443;28;20047;-50
2020/12/19 03:22:49;;;;;;;16.63;8.98;;;;;;;5.71;100.00;100510.03;4946399;28;20047;-50
2020/12/19 03:25:18;;;;;;;14.60;8.35;;;;;;;5.73;100.00;100509.88;4944599;28;20349;-52
2020/12/19 03:27:45;;;;;;;19.13;9.82;;;;;;;5.75;100.00;100506.13;4947446;28;20051;-52
2020/12/19 03:30:12;;;;;;;18.23;9.93;;;;;;;5.67;100.00;100511.28;4951772;28;20135;-51
2020/12/19 03:32:40;;;;;;;14.05;8.90;;;;;;;5.67;100.00;100511.28;4943509;28;20047;-49
2020/12/19 03:35:07;;;;;;;19.02;9.38;;;;;;;5.78;100.00;100497.06;4945224;28;20039;-53
2020/12/19 03:37:35;;;;;;;14.57;8.45;;;;;;;5.83;100.00;100510.75;4948072;28;20127;-52
2020/12/19 03:40:03;;;;;;;15.57;7.95;;;;;;;5.90;100.00;100495.97;4944003;28;20359;-50
2020/12/19 03:42:31;;;;;;;18.15;9.43;;;;;;;5.83;100.00;100500.97;4945347;28;20042;-50
2020/12/19 03:44:59;;;;;;;17.48;8.98;;;;;;;5.81;100.00;100492.34;4950613;28;20039;-49
2020/12/19 03:47:26;;;;;;;17.00;9.52;;;;;;;5.73;100.00;100500.16;4947033;28;20130;-50
2020/12/19 03:49:54;;;;;;;17.10;9.68;;;;;;;5.79;100.00;100488.97;4950358;29;20325;-51
2020/12/19 03:52:21;;;;;;;17.10;9.93;;;;;;;5.85;100.00;100492.88;4946351;28;20344;-52
2020/12/19 03:54:48;;;;;;;22.25;10.05;;;;;;;5.80;100.00;100489.84;4950354;28;20058;-50
2020/12/19 03:57:16;;;;;;;20.30;10.05;;;;;;;5.78;100.00;100492.59;4951422;28;20047;-52
2020/12/19 03:59:43;;;;;;;19.15;10.77;;;;;;;5.74;100.00;100487.72;4949384;28;20040;-50
2020/12/19 04:02:11;;;;;;;20.45;9.85;;;;;;;5.77;100.00;100485.66;4942456;29;20078;-52
2020/12/19 04:04:39;;;;;;;22.10;9.88;;;;;;;5.83;100.00;100471.81;4949308;28;20051;-50
2020/12/19 04:07:07;;;;;;;19.20;10.70;;;;;;;5.83;100.00;100479.78;4950896;28;20404;-49
2020/12/19 04:09:34;;;;;;;19.85;10.23;;;;;;;5.84;100.00;100470.84;4950051;28;20415;-53
2020/12/19 04:12:01;;;;;;;25.95;11.93;;;;;;;5.85;100.00;100475.19;4947509;28;20526;-49
2020/12/19 04:14:37;;;;;;;21.80;11.35;;;;;;;5.88;100.00;100457.31;4947674;28;20066;-49
2020/12/19 04:17:07;;;;;;;22.50;11.05;;;;;;;6.03;100.00;100458.59;4949984;28;20063;-52
2020/12/19 04:19:37;;;;;;;23.27;11.32;;;;;;;5.99;100.00;100462.50;4948834;28;20054;-52
2020/12/19 04:22:04;;;;;;;25.17;11.68;;;;;;;5.95;100.00;100450.47;4944507;28;20047;-52
2020/12/19 04:24:32;;;;;;;24.38;11.25;;;;;;;5.96;100.00;100460.09;4951794;28;20040;-52
2020/12/19 04:26:59;;;;;;;24.35;12.38;;;;;;;5.97;100.00;100456.47;4946564;28;20051;-52
2020/12/19 04:29:26;;;;;;;22.48;13.13;;;;;;;5.80;100.00;100455.38;4953226;28;20035;-49
2020/12/19 04:31:54;;;;;;;27.98;12.95;;;;;;;5.91;100.00;100449.06;4945663;28;20367;-52
2020/12/19 04:34:22;;;;;;;28.08;14.05;;;;;;;5.97;100.00;100448.53;4949666;28;20055;-51
2020/12/19 04:36:49;;;;;;;28.80;13.23;;;;;;;6.07;100.00;100459.13;4946199;28;20043;-51
2020/12/19 04:39:16;;;;;;;26.63;12.82;;;;;;;6.08;100.00;100451.06;4948995;28;20099;-50
2020/12/19 04:41:44;;;;;;;26.98;13.35;;;;;;;6.05;100.00;100453.97;4939254;29;20043;-50
2020/12/19 04:44:11;;;;;;;28.20;12.38;;;;;;;6.13;100.00;100438.19;4946678;28;20347;-53
2020/12/19 04:46:41;;;;;;;27.77;12.40;;;;;;;6.09;100.00;100444.75;4947076;28;20043;-50
2020/12/19 04:49:09;;;;;;;29.70;14.15;;;;;;;6.13;100.00;100435.53;4950305;28;20043;-52
2020/12/19 04:51:37;;;;;;;25.83;12.35;;;;;;;6.14;100.00;100442.50;4951456;28;20043;-51
2020/12/19 04:54:04;;;;;;;27.73;13.77;;;;;;;6.31;100.00;100434.81;4942151;28;20114;-52
2020/12/19 04:56:31;;;;;;;27.50;13.38;;;;;;;6.26;100.00;100442.34;4950695;28;20047;-50
2020/12/19 04:59:00;;;;;;;29.25;13.52;;;;;;;6.11;100.00;100434.84;4946271;28;20055;-50
2020/12/19 05:01:27;;;;;;;29.02;12.88;;;;;;;6.28;100.00;100435.06;4947220;28;20035;-50
2020/12/19 05:03:54;;;;;;;28.83;13.75;;;;;;;6.27;100.00;100438.72;4948919;28;20039;-50
2020/12/19 05:06:22;;;;;;;27.20;13.75;;;;;;;6.20;100.00;100438.44;4946097;28;20036;-54
2020/12/19 05:08:49;;;;;;;29.88;14.18;;;;;;;6.18;100.00;100435.09;4945600;28;20039;-54
2020/12/19 05:11:18;;;;;;;31.83;14.00;;;;;;;6.25;100.00;100432.72;4947643;28;20613;-50
2020/12/19 05:13:45;;;;;;;32.25;14.48;;;;;;;6.13;100.00;100438.19;4948558;28;20058;-52
2020/12/19 05:16:17;;;;;;;28.17;13.38;;;;;;;6.14;100.00;100423.13;4950165;28;20055;-51
2020/12/19 05:18:44;;;;;;;34.95;15.88;;;;;;;6.19;100.00;100429.66;4948062;28;20035;-52
2020/12/19 05:21:13;;;;;;;31.80;15.20;;;;;;;6.19;100.00;100426.16;4950742;28;20059;-49
2020/12/19 05:23:42;;;;;;;34.22;15.05;;;;;;;6.27;100.00;100425.47;4951755;28;20051;-48
2020/12/19 05:26:11;;;;;;;30.48;15.10;;;;;;;6.15;100.00;100419.47;4945386;28;20274;-52
2020/12/19 05:28:39;;;;;;;39.25;16.20;;;;;;;6.20;100.00;100412.75;4944176;28;20039;-52
2020/12/19 05:31:08;;;;;;;27.90;14.38;;;;;;;6.17;100.00;100426.31;4945102;28;20551;-49
2020/12/19 05:33:37;;;;;;;31.63;14.68;;;;;;;6.20;100.00;100423.38;4950386;28;20415;-49
2020/12/19 05:36:05;;;;;;;31.63;14.57;;;;;;;6.21;100.00;100413.63;4945767;28;20039;-50
2020/12/19 05:38:37;;;;;;;27.05;14.20;;;;;;;6.31;100.00;100409.09;4942225;28;20146;-48
2020/12/19 05:41:04;;;;;;;35.22;16.15;;;;;;;6.45;100.00;100421.06;4945287;28;20344;-52
2020/12/19 05:43:31;;;;;;;35.05;15.70;;;;;;;6.42;100.00;100409.91;4949493;28;20051;-51
2020/12/19 05:45:59;;;;;;;27.25;13.57;;;;;;;6.41;100.00;100393.16;4944293;28;20054;-51
2020/12/19 05:48:26;;;;;;;30.73;15.35;;;;;;;6.41;100.00;100398.47;4948202;28;20049;-49
2020/12/19 05:50:54;;;;;;;28.15;14.20;;;;;;;6.50;100.00;100397.56;4942240;28;20054;-52
2020/12/19 05:53:24;;;;;;;32.38;15.70;;;;;;;6.59;100.00;100402.97;4947191;28;20054;-51
2020/12/19 05:55:54;;;;;;;28.75;15.02;;;;;;;6.55;100.00;100405.94;4945247;28;20047;-50
2020/12/19 05:58:22;;;;;;;28.08;14.13;;;;;;;6.61;100.00;100401.03;4948049;28;20049;-51
2020/12/19 06:00:49;;;;;;;26.45;13.00;;;;;;;6.60;100.00;100402.81;4948918;28;20384;-51
2020/12/19 06:03:19;;;;;;;28.92;13.50;;;;;;;6.58;100.00;100396.00;4948927;28;20340;-52
2020/12/19 06:05:46;;;;;;;31.67;14.45;;;;;;;6.54;100.00;100401.59;4949784;28;20241;-49
2020/12/19 06:08:21;;;;;;;29.10;13.95;;;;;;;6.52;100.00;100392.09;4944944;28;20245;-52
2020/12/19 06:10:49;;;;;;;26.65;14.02;;;;;;;6.58;100.00;100388.88;4945838;28;20036;-50
2020/12/19 06:13:17;;;;;;;26.88;13.70;;;;;;;6.64;100.00;100384.81;4943110;28;20461;-49
2020/12/19 06:15:54;;;;;;;31.00;14.32;;;;;;;6.65;100.00;100386.47;4947072;28;20082;-49
2020/12/19 06:18:38;;;;;;;26.13;13.48;;;;;;;6.63;100.00;100383.13;4949396;28;20043;-49
2020/12/19 06:21:07;;;;;;;22.95;12.25;;;;;;;6.72;100.00;100390.22;4945363;28;20206;-51
2020/12/19 06:23:36;;;;;;;25.55;12.85;;;;;;;6.67;100.00;100392.47;4946048;28;20316;-50
2020/12/19 06:26:05;;;;;;;25.48;13.73;;;;;;;6.67;100.00;100387.16;4946997;28;20447;-48
2020/12/19 06:28:50;;;;;;;20.05;11.48;;;;;;;6.74;100.00;100393.53;4930615;29;20042;-51
2020/12/19 06:31:19;;;;;;;27.00;12.23;;;;;;;6.81;100.00;100389.31;4944256;28;20047;-51
2020/12/19 06:33:49;;;;;;;21.23;11.27;;;;;;;6.84;100.00;100388.19;4944724;28;20424;-50
2020/12/19 06:36:22;;;;;;;25.73;13.23;;;;;;;6.78;100.00;100397.56;4949885;28;20450;-50
2020/12/19 06:38:52;;;;;;;23.98;12.68;;;;;;;6.83;100.00;100403.28;4945420;28;20470;-52
2020/12/19 06:41:42;;;;;;;22.05;12.40;;;;;;;6.88;100.00;100394.88;4946629;28;20057;-49
2020/12/19 06:44:11;;;;;;;20.55;10.70;;;;;;;6.90;100.00;100398.19;4944125;28;20143;-49
2020/12/19 06:46:39;;;;;;;19.92;10.43;;;;;;;6.98;100.00;100394.81;4947374;28;20368;-50
2020/12/19 06:49:35;;;;;;;18.83;11.98;;;;;;;7.00;100.00;100387.50;4942066;28;20121;-48
2020/12/19 06:52:12;;;;;;;21.08;10.82;;;;;;;7.18;100.00;100390.19;4941081;28;20046;-53
2020/12/19 06:54:41;;;;;;;20.23;10.43;;;;;;;7.13;100.00;100400.41;4951748;28;20391;-54
2020/12/19 06:57:22;;;;;;;20.13;10.80;;;;;;;7.11;100.00;100408.53;4946754;28;20054;-49
2020/12/19 06:59:49;;;;;;;21.25;10.27;;;;;;;7.02;100.00;100406.78;4945922;28;20421;-52
2020/12/19 07:02:18;;;;;;;19.98;10.57;;;;;;;6.89;100.00;100407.97;4944739;28;20384;-49
2020/12/19 07:04:45;;;;;;;22.67;10.48;;;;;;;6.85;100.00;100401.31;4950487;28;20062;-51
2020/12/19 07:07:15;;;;;;;19.95;10.52;;;;;;;6.84;100.00;100404.94;4948470;28;20053;-49
2020/12/19 07:09:54;;;;;;;19.58;10.18;;;;;;;6.69;100.00;100401.09;4947434;28;20347;-49
2020/12/19 07:12:38;;;;;;;20.92;10.85;;;;;;;6.66;100.00;100393.44;4946889;28;20313;-51
2020/12/19 07:15:06;;;;;;;21.80;10.68;;;;;;;6.56;100.00;100406.75;4945782;28;20338;-51
2020/12/19 07:17:48;;;;;;;20.13;11.02;;;;;;;6.42;100.00;100408.09;4950114;28;20070;-50
2020/12/19 07:20:20;;;;;;;20.60;11.48;;;;;;;6.52;100.00;100400.94;4951443;28;20062;-50
2020/12/19 07:22:49;;;;;;;21.83;10.90;;;;;;;6.43;100.00;100400.97;4947317;28;20432;-49
2020/12/19 07:25:18;;;;;;;20.33;9.98;;;;;;;6.30;100.00;100402.13;4952083;28;20047;-50
2020/12/19 07:27:45;;;;;;;17.42;10.05;;;;;;;6.27;100.00;100399.75;4951051;28;20058;-50
2020/12/19 07:30:15;;;;;;;22.35;10.95;;;;;;;6.40;100.00;100404.75;4958974;28;20395;-51
2020/12/19 07:32:44;;;;;;;23.25;11.32;;;;;;;6.70;100.00;100413.41;4952165;28;20215;-51
2020/12/19 07:35:11;;;;;;;20.10;9.85;;;;;;;6.85;100.00;100405.78;4952785;28;20063;-49
2020/12/19 07:37:39;;;;;;;18.42;9.30;;;;;;;6.93;100.00;100402.38;4951635;28;20035;-51
2020/12/19 07:40:06;;;;;;;20.40;9.48;;;;;;;7.06;100.00;100403.69;4951145;28;20039;-50
2020/12/19 07:42:35;;;;;;;15.35;7.82;;;;;;;7.12;100.00;100402.25;4950906;28;20062;-52
2020/12/19 07:45:02;;;;;;;19.25;8.52;;;;;;;7.16;100.00;100400.97;4953305;28;20043;-50
2020/12/19 07:47:29;;;;;;;17.08;8.25;;;;;;;7.14;100.00;100392.28;4950684;28;20047;-50
2020/12/19 07:49:56;;;;;;;13.98;7.82;;;;;;;7.16;100.00;100400.09;4953216;28;20043;-49
2020/12/19 07:52:25;;;;;;;12.57;7.55;;;;;;;7.22;100.00;100395.03;4951705;28;20082;-49
2020/12/19 07:54:54;;;;;;;14.02;7.95;;;;;;;7.30;99.72;100382.81;4952441;28;20047;-51
2020/12/19 07:57:22;;;;;;;11.90;6.88;;;;;;;7.29;99.35;100391.78;4956044;28;20054;-48
2020/12/19 07:59:50;;;;;;;13.40;7.07;;;;;;;7.35;99.02;100396.47;4952758;28;20039;-49
2020/12/19 08:02:18;;;;;;;13.23;6.93;;;;;;;7.37;98.80;100400.66;4951112;28;20666;-51
2020/12/19 08:04:49;;;;;;;12.73;7.80;;;;;;;7.31;98.73;100395.13;4956539;28;20055;-49
2020/12/19 08:07:17;;;;;;;11.43;7.13;;;;;;;7.47;98.41;100392.63;4953773;28;20058;-49
2020/12/19 08:09:44;;;;;;;18.27;9.40;;;;;;;7.53;98.22;100385.84;4953122;28;20051;-48
2020/12/19 08:12:11;;;;;;;11.90;6.68;;;;;;;7.45;98.01;100389.25;4952484;28;20050;-51
2020/12/19 08:14:40;;;;;;;12.32;6.72;;;;;;;7.48;97.98;100386.28;4953449;28;20132;-52
2020/12/19 08:17:09;;;;;;;11.20;6.50;;;;;;;7.47;97.75;100394.41;4950959;28;20043;-52
2020/12/19 08:19:39;;;;;;;12.05;7.75;;;;;;;7.43;97.81;100377.09;4950621;28;20050;-50
2020/12/19 08:22:07;;;;;;;12.63;6.57;;;;;;;7.57;97.53;100381.91;4948471;28;20051;-49
2020/12/19 08:24:34;;;;;;;11.30;6.82;;;;;;;7.67;97.07;100373.81;4951520;28;20043;-52
2020/12/19 08:27:33;;;;;;;14.25;7.25;;;;;;;7.68;96.71;100381.66;4956106;28;20056;-49
2020/12/19 08:30:01;;;;;;;11.30;6.65;;;;;;;7.65;96.59;100375.81;4947513;28;20047;-49
2020/12/19 08:32:29;;;;;;;17.50;7.07;;;;;;;7.65;96.61;100381.94;4945226;28;20047;-49
2020/12/19 08:34:56;;;;;;;13.45;6.40;;;;;;;7.68;96.37;100380.81;4950998;28;20043;-49
2020/12/19 08:37:23;;;;;;;12.82;6.18;;;;;;;7.71;96.50;100393.78;4945989;28;20314;-51
2020/12/19 08:40:08;;;;;;;10.55;6.20;;;;;;;7.76;96.27;100378.22;4948034;28;20051;-52
2020/12/19 08:42:43;;;;;;;10.50;6.30;;;;;;;7.95;95.76;100369.19;4949124;28;20130;-49
2020/12/19 08:45:13;;;;;;;10.23;5.82;;;;;;;7.80;95.82;100379.56;4947120;28;20047;-51
2020/12/19 08:47:42;;;;;;;11.75;6.15;;;;;;;7.86;95.56;100381.59;4947303;28;20059;-48
2020/12/19 08:50:09;;;;;;;14.23;6.05;;;;;;;7.86;95.41;100364.81;4951584;28;20043;-49
2020/12/19 08:52:37;;;;;;;14.27;6.68;;;;;;;7.95;95.18;100368.34;4946342;28;20050;-50
2020/12/19 08:55:04;;;;;;;12.63;7.28;;;;;;;8.06;94.77;100346.81;4946531;28;20115;-51
2020/12/19 08:57:32;;;;;;;12.68;6.95;;;;;;;8.10;94.58;100364.13;4954301;28;20043;-51
2020/12/19 09:00:09;;;;;;;9.60;6.05;;;;;;;8.15;94.58;100372.47;4950947;28;20042;-53
2020/12/19 09:02:37;;;;;;;11.75;6.55;;;;;;;8.20;94.59;100372.81;4932714;28;20039;-50
2020/12/19 09:05:05;;;;;;;10.07;5.97;;;;;;;8.41;93.46;100377.75;4948004;28;20047;-49
2020/12/19 09:07:33;;;;;;;11.25;5.45;;;;;;;8.46;93.24;100374.63;4947944;28;20452;-48
2020/12/19 09:10:24;;;;;;;10.80;5.63;;;;;;;8.54;92.74;100365.84;4944427;28;20056;-49
2020/12/19 09:13:13;;;;;;;8.95;4.90;;;;;;;8.57;92.67;100369.00;4944609;28;20046;-49
2020/12/19 09:15:41;;;;;;;10.75;5.72;;;;;;;8.60;92.53;100370.53;4949153;28;20051;-50
2020/12/19 09:18:22;;;;;;;6.75;4.70;;;;;;;8.81;91.97;100382.59;4945544;28;20051;-50
2020/12/19 09:20:55;;;;;;;8.38;4.75;;;;;;;8.87;91.10;100380.09;4933237;28;20043;-51
2020/12/19 09:23:24;;;;;;;7.15;4.03;;;;;;;8.92;90.57;100387.59;4947674;28;20384;-51
2020/12/19 09:25:52;;;;;;;7.43;4.18;;;;;;;8.92;90.97;100375.13;4931107;29;20051;-49
2020/12/19 09:28:19;;;;;;;6.95;4.43;;;;;;;8.96;90.74;100381.78;4948724;28;20082;-49
2020/12/19 09:30:46;;;;;;;8.77;4.82;;;;;;;9.12;89.76;100390.81;4945770;28;20069;-49
2020/12/19 09:33:13;;;;;;;6.47;3.35;;;;;;;9.28;88.81;100390.81;4947956;28;20070;-50
2020/12/19 09:35:40;;;;;;;6.85;3.70;;;;;;;9.42;87.55;100388.50;4945422;28;20055;-49
2020/12/19 09:38:08;;;;;;;7.53;4.00;;;;;;;9.41;87.64;100389.50;4946910;28;20051;-51
2020/12/19 09:40:35;;;;;;;7.20;4.32;;;;;;;9.50;87.08;100396.50;4945960;28;20059;-50
2020/12/19 09:43:02;;;;;;;4.80;2.97;;;;;;;9.53;87.10;100401.50;4941371;28;20039;-50
2020/12/19 09:45:29;;;;;;;5.00;2.92;;;;;;;9.64;86.39;100401.16;4947891;28;20073;-50
2020/12/19 09:47:57;;;;;;;8.55;3.30;;;;;;;9.72;85.92;100391.50;4944970;28;20459;-49
2020/12/19 09:50:26;;;;;;;5.32;3.30;;;;;;;9.71;85.48;100400.50;4950606;28;20063;-50
2020/12/19 09:52:53;;;;;;;4.65;3.00;;;;;;;9.63;85.69;100404.81;4947789;28;20051;-52
2020/12/19 09:55:21;;;;;;;5.45;2.78;;;;;;;9.63;85.80;100383.50;4951370;28;20039;-50
2020/12/19 09:57:49;;;;;;;7.55;3.45;;;;;;;9.63;85.76;100396.81;4946778;28;20790;-49
2020/12/19 10:00:16;;;;;;;5.40;3.10;;;;;;;9.62;85.91;100397.81;4949206;28;20043;-50
2020/12/19 10:02:46;;;;;;;6.30;3.05;;;;;;;9.68;85.43;100400.84;4943661;28;20063;-50
2020/12/19 10:05:13;;;;;;;5.95;2.90;;;;;;;9.78;84.73;100406.81;4948832;28;20098;-50
2020/12/19 10:07:40;;;;;;;5.63;3.15;;;;;;;9.69;85.26;100426.50;4948626;28;20059;-50
2020/12/19 10:10:10;;;;;;;5.93;3.38;;;;;;;9.69;85.07;100429.16;4947866;28;20380;-50
2020/12/19 10:12:38;;;;;;;5.53;3.22;;;;;;;9.67;85.10;100429.34;4947152;28;20050;-50
2020/12/19 10:15:06;;;;;;;5.35;3.42;;;;;;;9.70;85.33;100442.31;4946521;28;20062;-49
2020/12/19 10:17:33;;;;;;;6.80;3.50;;;;;;;9.30;87.88;100428.81;4948316;28;20051;-53
2020/12/19 10:20:00;;;;;;;5.15;3.00;;;;;;;9.11;90.27;100426.44;4946082;28;20051;-51
2020/12/19 10:22:31;;;;;;;6.88;3.75;;;;;;;8.91;92.53;100424.03;4947759;28;20035;-51
2020/12/19 10:24:59;;;;;;;8.93;3.88;;;;;;;9.02;93.27;100427.41;4947088;28;20042;-48
2020/12/19 10:27:26;;;;;;;8.80;3.90;;;;;;;8.85;94.24;100424.69;4952488;28;20336;-54
2020/12/19 10:29:54;;;;;;;5.03;3.30;;;;;;;8.89;94.55;100433.22;4946168;28;20320;-55
2020/12/19 10:32:21;;;;;;;5.68;4.18;;;;;;;8.94;94.79;100430.88;4942832;28;20192;-52
2020/12/19 10:34:48;;;;;;;6.57;3.70;;;;;;;8.98;95.06;100420.75;4947117;28;20441;-51
2020/12/19 10:37:15;;;;;;;6.53;3.55;;;;;;;8.95;95.12;100428.06;4948113;28;20050;-51
2020/12/19 10:39:42;;;;;;;8.73;3.55;;;;;;;8.97;95.37;100430.53;4950304;28;20040;-49
2020/12/19 10:42:09;;;;;;;8.45;3.58;;;;;;;9.10;94.66;100430.06;4947096;28;20572;-49
2020/12/19 10:44:36;;;;;;;6.78;4.50;;;;;;;9.09;94.38;100420.44;4945941;28;20046;-51
2020/12/19 10:47:04;;;;;;;6.00;3.38;;;;;;;9.08;94.44;100432.09;4947939;28;20047;-52
2020/12/19 10:49:31;;;;;;;6.30;3.17;;;;;;;9.16;93.89;100432.13;4943812;28;20323;-52
2020/12/19 10:52:03;;;;;;;6.75;3.35;;;;;;;9.24;93.50;100429.47;4946538;28;20058;-52
2020/12/19 10:54:29;;;;;;;4.13;3.00;;;;;;;9.23;93.14;100430.47;4945856;28;20352;-51
2020/12/19 10:56:59;;;;;;;9.35;3.47;;;;;;;9.32;92.47;100430.47;4947274;28;20047;-50
2020/12/19 10:59:27;;;;;;;6.85;3.78;;;;;;;9.38;92.15;100430.63;4948661;28;20446;-51
2020/12/19 11:01:54;;;;;;;5.25;3.40;;;;;;;9.38;91.43;100422.63;4944826;28;20063;-51
2020/12/19 11:04:22;;;;;;;6.82;3.90;;;;;;;9.36;91.36;100429.97;4945746;28;20447;-50
2020/12/19 11:06:49;;;;;;;6.82;3.55;;;;;;;9.40;91.84;100449.13;4945461;28;20043;-50
2020/12/19 11:09:16;;;;;;;5.07;2.80;;;;;;;9.35;92.22;100446.94;4944419;28;20043;-53
2020/12/19 11:11:50;;;;;;;6.47;3.17;;;;;;;9.43;91.91;100446.16;4943752;28;20059;-55
2020/12/19 11:14:18;;;;;;;5.47;3.20;;;;;;;9.28;92.31;100438.78;4947899;28;20063;-51
2020/12/19 11:16:45;;;;;;;8.00;3.00;;;;;;;9.40;92.26;100446.44;4947106;28;20304;-52
2020/12/19 11:19:13;;;;;;;6.07;3.17;;;;;;;9.41;92.71;100437.47;4946012;28;20428;-51
2020/12/19 11:21:45;;;;;;;5.00;3.63;;;;;;;9.30;92.90;100431.47;4944260;28;20055;-53
2020/12/19 11:24:14;;;;;;;7.25;2.83;;;;;;;9.33;93.50;100437.44;4944204;28;20451;-50
2020/12/19 11:26:41;;;;;;;7.20;3.65;;;;;;;9.23;94.39;100433.13;4946438;28;20054;-52